createdAt,value
2023-04-11T00:03:22.449Z,8.45
2023-04-11T00:08:25.655Z,8.39
2023-04-11T00:13:29.796Z,8.75
2023-04-11T00:18:35.944Z,8.65
2023-04-11T00:23:38.751Z,8.67
2023-04-11T00:28:42.964Z,8.40
2023-04-11T00:33:45.820Z,8.47
2023-04-11T00:38:48.996Z,8.26
2023-04-11T00:43:54.245Z,8.20
2023-04-11T00:48:57.489Z,8.27
2023-04-11T00:54:02.202Z,8.18
2023-04-11T00:59:07.141Z,8.07
2023-04-11T01:04:10.543Z,8.45
2023-04-11T01:09:13.986Z,8.17
2023-04-11T01:14:20.569Z,8.26
2023-04-11T01:19:25.898Z,8.44
2023-04-11T01:24:30.749Z,8.11
2023-04-11T01:29:33.598Z,8.29
2023-04-11T01:34:38.738Z,8.22
2023-04-11T01:39:42.980Z,8.17
2023-04-11T01:44:45.810Z,7.82
2023-04-11T01:49:48.678Z,7.94
2023-04-11T01:54:52.886Z,7.92
2023-04-11T01:59:55.721Z,8.07
2023-04-11T02:04:58.906Z,8.05
2023-04-11T02:10:03.118Z,8.05
2023-04-11T02:15:06.767Z,8.07
2023-04-11T02:20:10.979Z,7.76
2023-04-11T02:25:15.212Z,8.05
2023-04-11T02:30:18.061Z,8.23
2023-04-11T02:35:21.075Z,8.21
2023-04-11T02:40:25.195Z,8.29
2023-04-11T02:45:28.027Z,8.19
2023-04-11T02:50:30.892Z,8.35
2023-04-11T02:55:35.254Z,7.86
2023-04-11T03:00:39.138Z,7.95
2023-04-11T03:05:44.707Z,8.21
2023-04-11T03:10:51.066Z,8.25
2023-04-11T03:15:54.639Z,8.25
2023-04-11T03:21:01.573Z,8.35
2023-04-11T03:26:07.987Z,8.15
2023-04-11T03:31:11.770Z,8.05
2023-04-11T03:36:16.744Z,7.97
2023-04-11T03:41:21.846Z,7.76
2023-04-11T03:46:26.190Z,7.69
2023-04-11T03:51:29.471Z,8.11
2023-04-11T03:56:40.763Z,7.77
2023-04-11T04:01:50.233Z,8.12
2023-04-11T04:06:56.762Z,7.60
2023-04-11T04:12:08.600Z,7.90
2023-04-11T04:17:32.603Z,7.89
2023-04-11T04:22:37.196Z,7.76
2023-04-11T04:27:44.329Z,7.37
2023-04-11T04:32:48.875Z,7.44
2023-04-11T04:37:51.849Z,7.36
2023-04-11T04:43:09.098Z,7.43
2023-04-11T04:48:18.612Z,7.40
2023-04-11T04:53:22.643Z,7.57
2023-04-11T04:58:34.301Z,7.52
2023-04-11T05:03:40.016Z,7.35
2023-04-11T05:08:48.658Z,7.35
2023-04-11T05:13:54.090Z,7.11
2023-04-11T05:18:57.692Z,7.09
2023-04-11T05:24:00.917Z,7.06
2023-04-11T05:29:12.798Z,7.10
2023-04-11T05:34:15.670Z,6.94
2023-04-11T05:39:19.549Z,4.46
2023-04-11T05:44:24.040Z,4.44
2023-04-11T05:49:26.949Z,4.31
2023-04-11T05:54:33.618Z,4.61
2023-04-11T05:59:37.879Z,4.32
2023-04-11T06:04:41.244Z,4.61
2023-04-11T06:09:44.325Z,4.69
2023-04-11T06:14:48.587Z,4.71
2023-04-11T06:19:51.437Z,4.88
2023-04-11T06:24:54.275Z,5.00
2023-04-11T06:29:58.515Z,4.80
2023-04-11T06:35:01.552Z,4.79
2023-04-11T06:40:05.748Z,4.50
2023-04-11T06:45:12.027Z,4.57
2023-04-11T06:50:14.964Z,4.49
2023-04-11T06:55:18.098Z,4.36
2023-04-11T07:00:22.755Z,4.34
2023-04-11T07:05:26.193Z,4.48
2023-04-11T07:10:29.126Z,4.29
2023-04-11T07:15:33.300Z,4.50
2023-04-11T07:20:36.391Z,4.90
2023-04-11T07:25:39.292Z,5.04
2023-04-11T07:30:43.723Z,5.52
2023-04-11T07:35:46.509Z,5.44
2023-04-11T07:40:49.457Z,5.69
2023-04-11T07:45:54.206Z,5.97
2023-04-11T07:50:57.084Z,5.83
2023-04-11T07:55:59.942Z,6.09
2023-04-11T08:01:05.454Z,6.36
2023-04-11T08:06:09.121Z,6.83
2023-04-11T08:11:11.900Z,7.45
2023-04-11T08:16:16.422Z,7.37
2023-04-11T08:21:19.245Z,7.18
2023-04-11T08:26:22.055Z,7.37
2023-04-11T08:31:26.897Z,7.40
2023-04-11T08:36:29.727Z,7.69
2023-04-11T08:41:34.477Z,8.17
2023-04-11T08:46:42.664Z,8.90
2023-04-11T08:51:46.110Z,8.43
2023-04-11T08:56:48.968Z,7.93
2023-04-11T09:01:53.841Z,8.57
2023-04-11T09:07:01.162Z,8.37
2023-04-11T09:12:05.077Z,8.77
2023-04-11T09:17:13.422Z,8.68
2023-04-11T09:22:16.340Z,8.81
2023-04-11T09:27:24.326Z,8.89
2023-04-11T09:32:30.263Z,8.31
2023-04-11T09:37:43.813Z,8.40
2023-04-11T09:42:47.865Z,8.91
2023-04-11T09:47:53.999Z,9.96
2023-04-11T09:52:59.317Z,9.80
2023-04-11T09:58:02.933Z,9.99
2023-04-11T10:03:07.275Z,10.07
2023-04-11T10:08:18.218Z,10.33
2023-04-11T10:13:43.253Z,10.57
2023-04-11T10:19:20.087Z,10.05
2023-04-11T10:24:26.573Z,10.64
2023-04-11T10:29:52.491Z,9.93
2023-04-11T10:35:29.511Z,10.41
2023-04-11T10:40:33.703Z,10.60
2023-04-11T10:45:39.894Z,9.79
2023-04-11T10:50:44.537Z,10.09
2023-04-11T10:55:50.699Z,8.58
2023-04-11T11:01:31.278Z,7.75
2023-04-11T11:06:47.208Z,8.61
2023-04-11T11:12:11.945Z,8.59
2023-04-11T11:17:16.058Z,7.20
2023-04-11T11:22:25.556Z,7.89
2023-04-11T11:27:30.009Z,9.54
2023-04-11T11:32:32.954Z,10.32
2023-04-11T11:37:36.268Z,8.63
2023-04-11T11:42:40.943Z,8.53
2023-04-11T11:47:44.338Z,9.57
2023-04-11T11:52:48.760Z,9.61
2023-04-11T11:57:52.969Z,11.70
2023-04-11T12:02:59.324Z,10.13
2023-04-11T12:08:04.305Z,8.98
2023-04-11T12:13:16.154Z,9.59
2023-04-11T12:18:24.710Z,10.52
2023-04-11T12:23:27.547Z,13.57
2023-04-11T12:28:31.760Z,14.12
2023-04-11T12:33:34.824Z,13.95
2023-04-11T12:45:18.758Z,13.26
2023-04-11T12:50:23.264Z,11.71
2023-04-11T12:55:26.086Z,10.63
2023-04-11T13:00:30.298Z,10.69
2023-04-11T13:05:33.033Z,13.83
2023-04-11T13:10:35.761Z,14.16
2023-04-11T13:15:39.794Z,11.31
2023-04-11T13:20:42.589Z,11.39
2023-04-11T13:25:45.316Z,12.67
2023-04-11T13:30:49.405Z,14.19
2023-04-11T13:35:52.144Z,14.28
2023-04-11T13:40:55.622Z,12.48
2023-04-11T13:45:59.776Z,11.76
2023-04-11T13:51:02.517Z,11.42
2023-04-11T13:56:05.777Z,11.54
2023-04-11T14:01:10.374Z,12.24
2023-04-11T14:06:13.330Z,12.27
2023-04-11T14:11:16.137Z,13.32
2023-04-11T14:16:20.523Z,11.33
2023-04-11T14:21:23.700Z,12.86
2023-04-11T14:26:26.651Z,12.14
2023-04-11T14:31:32.250Z,12.82
2023-04-11T14:36:35.634Z,13.23
2023-04-11T14:41:38.872Z,13.55
2023-04-11T14:46:43.370Z,12.60
2023-04-11T14:51:46.410Z,12.58
2023-04-11T14:56:49.215Z,12.99
2023-04-11T15:01:53.481Z,14.26
2023-04-11T15:06:56.552Z,12.07
2023-04-11T15:11:59.370Z,12.86
2023-04-11T15:17:03.528Z,13.05
2023-04-11T15:22:06.368Z,11.65
2023-04-11T15:27:09.198Z,11.76
2023-04-11T15:32:13.341Z,12.90
2023-04-11T15:37:16.151Z,12.41
2023-04-11T15:42:19.063Z,11.32
2023-04-11T15:47:23.301Z,12.14
2023-04-11T15:52:26.339Z,12.37
2023-04-11T15:57:29.185Z,12.87
2023-04-11T16:02:33.679Z,12.08
2023-04-11T16:07:36.675Z,12.47
2023-04-11T16:12:39.738Z,12.17
2023-04-11T16:17:46.313Z,13.14
2023-04-11T16:22:49.259Z,12.66
2023-04-11T16:27:52.143Z,12.26
2023-04-11T16:32:56.549Z,12.73
2023-04-11T16:37:59.413Z,13.20
2023-04-11T16:43:02.218Z,12.47
2023-04-11T16:48:07.007Z,12.56
2023-04-11T16:53:09.930Z,11.81
2023-04-11T16:58:12.773Z,11.71
2023-04-11T17:03:18.149Z,11.79
2023-04-11T17:08:21.237Z,11.70
2023-04-11T17:13:24.044Z,11.68
2023-04-11T17:18:28.442Z,11.67
2023-04-11T17:23:41.961Z,12.33
2023-04-11T17:28:46.943Z,12.49
2023-04-11T17:33:51.122Z,11.73
2023-04-11T17:38:54.748Z,11.32
2023-04-11T17:43:57.701Z,11.25
2023-04-11T17:49:02.032Z,11.27
2023-04-11T17:54:05.151Z,11.13
2023-04-11T17:59:07.880Z,10.92
2023-04-11T18:04:13.552Z,10.68
2023-04-11T18:09:17.216Z,10.54
2023-04-11T18:14:20.189Z,10.35
2023-04-11T18:19:24.365Z,10.17
2023-04-11T18:24:27.803Z,9.93
2023-04-11T18:29:30.548Z,9.84
2023-04-11T18:34:34.478Z,9.76
2023-04-11T18:39:38.159Z,9.83
2023-04-11T18:44:42.784Z,9.98
2023-04-11T18:49:47.547Z,9.91
2023-04-11T18:54:50.482Z,9.89
2023-04-11T18:59:55.677Z,9.81
2023-04-11T19:05:01.149Z,9.72
2023-04-11T19:10:04.145Z,9.68
2023-04-11T19:15:08.950Z,9.57
2023-04-11T19:20:13.696Z,9.51
2023-04-11T19:25:16.988Z,9.45
2023-04-11T19:30:19.899Z,9.49
2023-04-11T19:35:24.276Z,9.38
2023-04-11T19:40:27.137Z,9.37
2023-04-11T19:45:31.712Z,9.32
2023-04-11T19:50:36.848Z,9.22
2023-04-11T19:55:39.999Z,9.14
2023-04-11T20:00:42.788Z,9.04
2023-04-11T20:05:47.026Z,8.98
2023-04-11T20:10:49.993Z,8.98
2023-04-11T20:22:53.721Z,8.79
2023-04-11T20:27:56.527Z,8.82
2023-04-11T20:32:59.318Z,8.76
2023-04-11T20:38:03.456Z,8.69
2023-04-11T20:43:06.671Z,8.51
2023-04-11T20:48:12.841Z,8.34
2023-04-11T20:53:16.974Z,8.20
2023-04-11T20:58:21.007Z,8.04
2023-04-11T21:03:24.036Z,8.04
2023-04-11T21:08:28.371Z,7.99
2023-04-11T21:13:31.186Z,7.90
2023-04-11T21:18:33.958Z,7.82
2023-04-11T21:23:38.197Z,7.69
2023-04-11T21:28:40.981Z,7.61
2023-04-11T21:33:46.451Z,7.58
2023-04-11T21:38:50.668Z,7.53
2023-04-11T21:43:53.443Z,7.45
2023-04-11T21:48:56.206Z,7.42
2023-04-11T21:54:00.328Z,7.32
2023-04-11T21:59:03.194Z,7.11
2023-04-11T22:04:06.270Z,7.06
2023-04-11T22:09:10.584Z,7.01
2023-04-11T22:14:16.173Z,7.03
2023-04-11T22:19:19.730Z,7.00
2023-04-11T22:24:31.060Z,6.91
2023-04-11T22:29:34.439Z,6.91
2023-04-11T22:34:37.227Z,6.83
2023-04-11T22:39:41.461Z,6.87
2023-04-11T22:44:44.193Z,6.88
2023-04-11T22:49:46.961Z,6.79
2023-04-11T22:54:51.054Z,6.68
2023-04-11T22:59:53.838Z,6.77
2023-04-11T23:04:56.633Z,6.70
2023-04-11T23:10:04.281Z,6.62
2023-04-11T23:15:08.137Z,6.59
2023-04-11T23:20:13.645Z,6.43
2023-04-11T23:25:18.151Z,6.49
2023-04-11T23:30:20.906Z,6.50
2023-04-11T23:35:23.756Z,6.54
2023-04-11T23:40:29.554Z,6.55
2023-04-11T23:45:34.109Z,6.58
2023-04-11T23:50:36.911Z,6.57
2023-04-11T23:55:41.558Z,6.44
